Latest Weather Observations for Lucinda

IDQ60801

Issued at 10:42 am EST Tuesday 14 July 2020 (issued every 10 minutes, with the page automatically refreshed every 10 minutes)

About weather observations | Map of weather stations | Latest weather observations for QLD | Other Formats
Station Details ID: 032141 Name: LUCINDA POINT Lat: -18.52 Lon: 146.39 Height: 10.0 m
Data from the previous 72 hours. | See also: Recent months at Lucinda
Date/Time
EST
Temp
°C
App
Temp
°C
Dew
Point
°C
Rel
Hum
%
Delta-T
°C
Wind Press
QNH
hPa
Press
MSL
hPa
Rain since
9am
mm
Dir  Spd
km/h
Gust
km/h
Spd
kts
Gust
kts
14/10:30am 18.7 13.7 6.5 45 6.1 SSW 22 30 12 16 1020.1 1020.1 -
14/10:00am 18.4 13.3 5.9 44 6.1 SSW 22 26 12 14 1020.2 1020.2 -
14/09:30am 18.0 12.2 4.2 40 6.5 SW 24 30 13 16 1020.2 1020.2 -
14/09:00am 17.5 12.9 8.1 54 4.8 SW 22 26 12 14 1020.2 1020.2 -
14/08:30am 17.0 12.4 8.2 56 4.5 SW 22 26 12 14 1020.1 1020.1 -
14/08:00am 16.8 11.9 8.5 58 4.2 SW 24 26 13 14 1019.8 1019.8 -
14/07:30am 16.7 11.7 8.1 57 4.4 SW 24 26 13 14 1019.4 1019.4 -
14/07:00am 16.9 12.0 6.7 51 5.0 WSW 22 26 12 14 1019.0 1019.0 -
14/06:30am 17.1 12.5 8.3 56 4.5 SW 22 24 12 13 1018.7 1018.7 -
14/06:00am 17.1 12.5 8.3 56 4.5 SW 22 24 12 13 1018.6 1018.6 -
14/05:30am 17.2 12.2 8.1 55 4.6 SW 24 28 13 15 1018.4 1018.4 -
14/05:00am 16.9 12.7 9.6 62 3.8 SW 22 26 12 14 1018.2 1018.2 -
14/04:30am 17.7 12.5 8.8 56 4.6 SW 26 30 14 16 1017.8 1017.8 -
14/04:00am 17.9 13.0 10.0 60 4.2 SW 26 30 14 16 1017.9 1017.9 -
14/03:30am 18.9 14.2 9.1 53 5.1 SSW 24 30 13 16 1017.9 1017.9 -
14/03:00am 19.1 14.3 9.0 52 5.3 SSW 24 30 13 16 1017.9 1017.9 -
14/02:30am 19.1 14.3 9.0 52 5.3 SSW 24 30 13 16 1018.0 1018.0 -
14/02:08am 19.9 12.8 7.9 46 6.2 S 35 48 19 26 1018.2 1018.2 -
14/02:00am 21.6 12.6 2.3 28 9.0 S 39 48 21 26 1018.2 1018.2 -
14/01:30am 21.8 13.4 3.9 31 8.7 S 37 43 20 23 1018.6 1018.6 -
14/01:00am 22.2 13.6 4.7 32 8.6 S 39 46 21 25 1018.6 1018.6 -
14/12:30am 22.3 14.5 2.9 28 9.2 S 33 41 18 22 1018.8 1018.8 -
14/12:00am 22.3 14.9 4.8 32 8.6 S 33 41 18 22 1018.9 1018.9 -
 
Date/Time
EST
Temp
°C
App
Temp
°C
Dew
Point
°C
Rel
Hum
%
Delta-T
°C
Wind Press
QNH
hPa
Press
MSL
hPa
Rain since
9am
mm
Dir  Spd
km/h
Gust
km/h
Spd
kts
Gust
kts
13/11:48pm 22.4 15.4 5.8 34 8.4 S 32 41 17 22 1019.0 1019.0 -
13/11:30pm 20.3 17.7 12.0 59 4.6 SW 17 20 9 11 1019.1 1019.1 -
13/11:00pm 19.7 18.3 13.4 67 3.6 SW 13 15 7 8 1019.2 1019.2 -
13/10:30pm 19.4 17.4 13.8 70 3.2 SW 17 19 9 10 1019.3 1019.3 -
13/10:00pm 19.9 17.9 13.8 68 3.5 SW 17 20 9 11 1019.1 1019.1 -
13/09:30pm 22.7 17.4 11.1 48 6.4 S 30 33 16 18 1018.9 1018.9 -
13/09:00pm 22.9 18.2 10.7 46 6.7 S 26 33 14 18 1018.8 1018.8 -
13/08:30pm 22.6 20.8 10.7 47 6.6 S 11 17 6 9 1018.8 1018.8 -
13/08:00pm 22.4 21.5 11.2 49 6.2 S 7 11 4 6 1018.5 1018.5 -
13/07:30pm 22.0 21.1 10.8 49 6.2 ESE 6 7 3 4 1018.1 1018.1 -
13/07:00pm 22.2 20.9 10.0 46 6.6 SE 7 11 4 6 1017.8 1017.8 -
13/06:30pm 22.2 21.8 11.0 49 6.2 SSE 4 7 2 4 1017.3 1017.3 -
13/06:00pm 22.2 21.1 10.7 48 6.3 SE 7 11 4 6 1016.8 1016.8 -
13/05:30pm 22.5 21.1 9.6 44 7.0 S 7 13 4 7 1016.3 1016.3 -
13/05:00pm 23.0 20.4 7.9 38 7.9 S 11 17 6 9 1016.0 1016.0 -
13/04:30pm 22.6 20.3 9.0 42 7.3 S 11 17 6 9 1015.6 1015.6 -
13/04:00pm 22.3 19.3 9.1 43 7.1 S 15 20 8 11 1015.5 1015.5 -
13/03:30pm 21.9 18.8 8.8 43 7.0 S 15 20 8 11 1015.5 1015.5 -
13/03:00pm 21.6 17.9 9.5 46 6.5 S 19 28 10 15 1015.6 1015.6 -
13/02:30pm 21.6 16.9 9.2 45 6.6 S 24 30 13 16 1015.8 1015.8 -
13/02:00pm 21.4 16.8 8.3 43 6.9 S 22 26 12 14 1016.0 1016.0 -
13/01:30pm 21.5 17.5 9.1 45 6.6 S 20 24 11 13 1016.3 1016.3 -
13/01:00pm 21.2 17.2 8.1 43 6.8 S 19 24 10 13 1016.5 1016.5 -
13/12:30pm 21.8 17.1 5.3 34 8.2 SSW 19 26 10 14 1017.0 1017.0 -
13/12:00pm 20.9 16.8 6.1 38 7.4 SSW 17 20 9 11 1017.5 1017.5 -
13/11:30am 20.4 15.8 6.4 40 7.0 SW 20 28 11 15 1018.1 1018.1 -
13/11:00am 20.2 14.0 6.2 40 7.0 SW 28 33 15 18 1018.3 1018.3 -
13/10:30am 19.8 12.6 5.8 40 6.9 SW 33 37 18 20 1018.5 1018.5 -
13/10:00am 19.5 13.1 6.9 44 6.3 SW 30 37 16 20 1018.5 1018.5 -
13/09:30am 19.7 13.5 6.1 41 6.8 SW 28 32 15 17 1018.5 1018.5 -
13/09:00am 19.6 14.1 7.4 45 6.2 SW 26 30 14 16 1018.5 1018.5 -
13/08:30am 19.7 14.9 9.0 50 5.6 SW 24 26 13 14 1018.2 1018.2 -
13/08:00am 19.7 14.9 9.0 50 5.6 SW 24 28 13 15 1017.9 1017.9 -
13/07:30am 20.7 14.9 9.3 48 6.1 SSW 30 39 16 21 1017.3 1017.3 -
13/07:00am 21.6 15.9 8.5 43 6.9 S 28 33 15 18 1016.9 1016.9 -
13/06:30am 21.8 16.2 8.7 43 6.9 SSW 28 33 15 18 1016.6 1016.6 -
13/06:00am 22.2 17.3 8.3 41 7.3 S 24 28 13 15 1016.6 1016.6 -
13/05:30am 22.4 16.5 8.9 42 7.2 S 30 35 16 19 1016.4 1016.4 -
13/05:00am 22.4 16.2 9.9 45 6.8 S 33 37 18 20 1016.1 1016.1 -
13/04:30am 22.0 19.9 14.6 63 4.4 SSW 19 28 10 15 1016.2 1016.2 -
13/04:00am 21.9 23.0 19.6 87 1.5 SSW 13 13 7 7 1016.1 1016.1 -
13/03:30am 21.6 21.9 18.8 84 1.8 SSW 15 17 8 9 1016.0 1016.0 -
13/03:00am 21.4 - - - - SW 11 13 6 7 1016.1 1016.1 -
13/02:30am 21.7 - - - - SSW 13 15 7 8 1016.2 1016.2 -
13/02:00am 21.8 - - - - SSW 9 11 5 6 1016.1 1016.1 -
13/01:30am 21.7 23.8 20.2 91 1.0 WSW 9 11 5 6 1016.1 1016.1 -
13/01:00am 22.1 24.2 20.2 89 1.2 SSW 9 9 5 5 1016.4 1016.4 -
13/12:30am 22.2 23.4 19.9 87 1.5 SSW 13 15 7 8 1016.2 1016.2 -
13/12:00am 22.1 24.8 20.2 89 1.2 SW 6 9 3 5 1016.3 1016.3 -
 
Date/Time
EST
Temp
°C
App
Temp
°C
Dew
Point
°C
Rel
Hum
%
Delta-T
°C
Wind Press
QNH
hPa
Press
MSL
hPa
Rain since
9am
mm
Dir  Spd
km/h
Gust
km/h
Spd
kts
Gust
kts
12/11:30pm 22.3 24.3 20.0 87 1.5 SW 9 11 5 6 1016.3 1016.3 -
12/11:00pm 22.2 24.4 20.3 89 1.2 WSW 9 11 5 6 1016.4 1016.4 -
12/10:30pm 22.3 23.9 20.0 87 1.5 SW 11 13 6 7 1016.3 1016.3 -
12/10:00pm 22.3 24.3 20.0 87 1.5 SW 9 11 5 6 1016.2 1016.2 -
12/09:30pm 22.3 26.2 20.4 89 1.2 CALM 0 6 0 3 1016.1 1016.1 -
12/09:00pm 22.3 24.7 20.0 87 1.5 SW 7 7 4 4 1016.0 1016.0 -
12/08:30pm 22.4 24.4 19.9 86 1.6 SW 9 9 5 5 1015.8 1015.8 -
12/08:00pm 22.6 24.8 20.3 87 1.5 WSW 9 11 5 6 1015.4 1015.4 -
12/07:30pm 22.5 25.1 20.4 88 1.4 SSW 7 7 4 4 1015.2 1015.2 -
12/07:00pm 22.5 25.0 20.2 87 1.5 S 7 7 4 4 1014.7 1014.7 -
12/06:30pm 22.5 23.7 20.0 86 1.6 S 13 17 7 9 1014.3 1014.3 -
12/06:00pm 22.5 23.8 20.2 87 1.5 S 13 15 7 8 1014.0 1014.0 -
12/05:30pm 22.5 23.7 20.0 86 1.6 S 13 15 7 8 1013.9 1013.9 -
12/05:00pm 22.4 24.0 19.9 86 1.6 S 11 13 6 7 1013.7 1013.7 -
12/04:30pm 22.5 24.7 19.7 84 1.8 SSW 7 9 4 5 1013.6 1013.6 -
12/04:00pm 23.3 26.0 20.2 83 2.0 S 6 9 3 5 1013.5 1013.5 -
12/03:30pm 23.1 25.5 19.7 81 2.2 S 6 9 3 5 1013.7 1013.7 -
12/03:00pm 23.3 25.6 19.9 81 2.2 S 7 9 4 5 1013.6 1013.6 -
12/02:30pm 22.7 24.7 19.9 84 1.8 S 9 13 5 7 1013.7 1013.7 -
12/02:00pm 22.5 23.5 19.5 83 1.9 S 13 15 7 8 1014.0 1014.0 -
12/01:30pm 22.4 23.3 19.2 82 2.0 S 13 17 7 9 1014.3 1014.3 -
12/01:00pm 22.3 22.0 19.1 82 2.0 S 19 20 10 11 1014.5 1014.5 -
12/12:30pm 22.3 22.5 19.3 83 1.9 S 17 20 9 11 1014.7 1014.7 -
12/12:00pm 22.1 21.7 19.3 84 1.8 S 20 24 11 13 1015.1 1015.1 -
12/11:30am 21.9 21.2 19.6 87 1.5 S 22 26 12 14 1015.3 1015.3 -
12/11:00am 21.6 20.1 19.5 88 1.3 S 26 30 14 16 1015.7 1015.7 -
12/10:30am 21.9 - - - - S 24 28 13 15 1016.1 1016.1 -
12/10:00am 21.9 - - - - S 24 26 13 14 1016.2 1016.2 -
12/09:30am 21.8 - - - - S 26 30 14 16 1016.2 1016.2 -
12/09:00am 21.8 - - - - S 24 28 13 15 1016.0 1016.0 -
12/08:30am 21.9 - - - - S 26 30 14 16 1015.9 1015.9 -
12/08:00am 21.7 - - - - S 26 30 14 16 1015.5 1015.5 -
12/07:30am 21.8 - - - - S 26 28 14 15 1015.4 1015.4 -
12/07:00am 21.9 - - - - S 24 28 13 15 1015.1 1015.1 -
12/06:30am 22.0 - - - - S 24 28 13 15 1014.8 1014.8 -
12/06:00am 22.1 - - - - S 20 26 11 14 1014.7 1014.7 -
12/05:30am 22.0 - - - - S 20 24 11 13 1014.6 1014.6 -
12/05:00am 21.9 - - - - S 22 26 12 14 1014.4 1014.4 -
12/04:30am 22.0 - - - - SSW 19 22 10 12 1014.3 1014.3 -
12/04:00am 21.6 - - - - S 17 20 9 11 1014.4 1014.4 -
12/03:30am 21.6 - - - - S 19 22 10 12 1014.3 1014.3 -
12/03:00am 21.6 - - - - S 22 26 12 14 1014.5 1014.5 -
12/02:30am 21.6 - - - - S 22 24 12 13 1014.6 1014.6 -
12/02:00am 21.4 - - - - S 22 26 12 14 1014.6 1014.6 -
12/01:30am 21.5 - - - - S 19 26 10 14 1014.9 1014.9 -
12/01:00am 21.7 - - - - S 20 24 11 13 1015.0 1015.0 -
12/12:30am 21.8 - - - - S 19 26 10 14 1015.2 1015.2 -
12/12:00am 21.8 - - - - SW 15 17 8 9 1015.5 1015.5 -
 
Date/Time
EST
Temp
°C
App
Temp
°C
Dew
Point
°C
Rel
Hum
%
Delta-T
°C
Wind Press
QNH
hPa
Press
MSL
hPa
Rain since
9am
mm
Dir  Spd
km/h
Gust
km/h
Spd
kts
Gust
kts
11/11:30pm 21.7 - - - - SSW 17 20 9 11 1015.6 1015.6 -
11/11:00pm 21.7 - - - - SSW 13 15 7 8 1015.9 1015.9 -
11/10:30pm 21.7 - - - - S 15 17 8 9 1016.1 1016.1 -
11/10:00pm 21.6 - - - - S 15 17 8 9 1016.3 1016.3 -
11/09:30pm 21.2 - - - - S 9 17 5 9 1016.4 1016.4 -
11/09:00pm 21.1 - - - - SSE 11 17 6 9 1016.6 1016.6 -
11/08:30pm 21.0 - - - - SE 9 15 5 8 1016.5 1016.5 -
11/08:00pm 21.0 - - - - S 11 15 6 8 1016.2 1016.2 -
11/07:30pm 20.8 - - - - ESE 13 17 7 9 1016.0 1016.0 -
11/07:00pm 21.1 - - - - SE 4 7 2 4 1016.0 1016.0 -
11/06:30pm 20.9 - - - - S 17 20 9 11 1015.5 1015.5 -
11/06:00pm 21.0 - - - - S 11 15 6 8 1015.6 1015.6 -
11/05:30pm 20.8 - - - - S 17 22 9 12 1015.5 1015.5 -
11/05:00pm 21.2 - - - - S 20 26 11 14 1015.3 1015.3 -
11/04:30pm 21.0 - - - - S 24 26 13 14 1015.2 1015.2 -
11/04:00pm 20.9 - - - - S 22 28 12 15 1015.1 1015.1 -
11/03:30pm 20.7 - - - - S 20 24 11 13 1015.0 1015.0 -
11/03:00pm 20.6 - - - - S 22 26 12 14 1015.1 1015.1 -
11/02:30pm 21.1 - - - - S 22 26 12 14 1015.2 1015.2 -
11/02:00pm 21.1 - - - - S 24 28 13 15 1015.6 1015.6 -
11/01:30pm 21.0 - - - - S 26 30 14 16 1015.8 1015.8 -
11/01:00pm 20.5 - - - - S 28 32 15 17 1016.1 1016.1 -
11/12:30pm 20.6 - - - - S 24 28 13 15 1016.6 1016.6 -
11/12:00pm 20.4 - - - - S 24 28 13 15 1016.8 1016.8 -
11/11:30am 20.4 - - - - S 24 28 13 15 1017.0 1017.0 -
11/11:00am 20.3 - - - - S 24 28 13 15 1017.3 1017.3 -

Other formats

Comma delimited format used in spreadsheet applications
http://www.bom.gov.au/fwo/IDQ60801/IDQ60801.94295.axf

JavaScript Object Notation format (JSON) in row-major order
http://www.bom.gov.au/fwo/IDQ60801/IDQ60801.94295.json

Data quality

Most of these data are generated automatically and are frequently updated. Quality checks on data are not normally performed. It is possible for incorrect values to appear. Refer to information at About Latest Weather Observations and please check the disclaimer before using these data.